Time;durP1;ratioP1;P1;durP2;ratioP2;P2;SDS_P1;SDS_P2;PMS_P1;PMS_P2;Temp;Humidity;BMP_temperature;BMP_pressure;BME280_temperature;BME280_humidity;BME280_pressure;Samples;Min_cycle;Max_cycle;Signal;HPM_P1;HPM_P2
2021/04/03 00:01:07;;;;;;;14.85;7.53;;;14.50;99.90;;;;;;5072855;28;20053;-50
2021/04/03 00:03:34;;;;;;;18.80;8.68;;;14.50;99.90;;;;;;5072706;28;20078;-51
2021/04/03 00:06:02;;;;;;;14.68;8.13;;;14.50;99.90;;;;;;5072761;28;20123;-52
2021/04/03 00:08:29;;;;;;;21.92;9.25;;;14.50;99.90;;;;;;5071924;28;20055;-51
2021/04/03 00:11:00;;;;;;;18.92;7.72;;;14.40;99.90;;;;;;5072772;28;20144;-50
2021/04/03 00:13:34;;;;;;;14.48;7.85;;;14.40;99.90;;;;;;5072139;28;20136;-51
2021/04/03 00:16:03;;;;;;;14.65;8.35;;;14.40;99.90;;;;;;5072142;28;20597;-51
2021/04/03 00:18:31;;;;;;;21.75;10.63;;;14.40;99.90;;;;;;5055999;28;20102;-51
2021/04/03 00:20:59;;;;;;;17.52;9.73;;;14.40;99.90;;;;;;5071530;28;20037;-50
2021/04/03 00:23:30;;;;;;;16.25;8.60;;;14.40;99.90;;;;;;5039388;28;20145;-50
2021/04/03 00:25:58;;;;;;;18.05;9.48;;;14.40;99.90;;;;;;5071391;28;20056;-56
2021/04/03 00:28:27;;;;;;;15.32;8.52;;;14.50;99.90;;;;;;5072224;28;20060;-53
2021/04/03 00:30:56;;;;;;;15.02;9.15;;;14.50;99.90;;;;;;5071290;28;20098;-50
2021/04/03 00:33:23;;;;;;;17.25;8.27;;;14.60;99.90;;;;;;5072254;28;20137;-52
2021/04/03 00:36:02;;;;;;;18.85;8.25;;;14.60;99.90;;;;;;5056025;28;20048;-57
2021/04/03 00:38:29;;;;;;;16.33;9.25;;;14.50;99.90;;;;;;5071914;28;20487;-53
2021/04/03 00:40:57;;;;;;;18.83;10.10;;;14.50;99.90;;;;;;5057612;28;20055;-50
2021/04/03 00:43:24;;;;;;;19.92;10.15;;;14.50;99.90;;;;;;5051866;28;20127;-50
2021/04/03 00:45:52;;;;;;;14.20;7.50;;;14.50;99.90;;;;;;5053657;28;20049;-52
2021/04/03 00:48:23;;;;;;;13.18;8.13;;;14.50;99.90;;;;;;5019552;28;20049;-50
2021/04/03 00:50:53;;;;;;;13.63;7.50;;;14.50;99.90;;;;;;5052371;28;20122;-54
2021/04/03 00:53:26;;;;;;;20.05;8.70;;;14.50;99.90;;;;;;5052205;28;20052;-53
2021/04/03 00:56:09;;;;;;;12.82;7.15;;;14.50;99.90;;;;;;5052329;28;20068;-53
2021/04/03 00:58:36;;;;;;;13.65;8.23;;;14.60;99.90;;;;;;5051979;28;20079;-51
2021/04/03 01:01:08;;;;;;;13.32;7.82;;;14.50;99.90;;;;;;5020062;28;20052;-54
2021/04/03 01:03:40;;;;;;;14.70;7.60;;;14.50;99.90;;;;;;5052225;28;20056;-52
2021/04/03 01:06:07;;;;;;;15.80;8.38;;;14.40;99.90;;;;;;5035761;28;20045;-51
2021/04/03 01:08:35;;;;;;;15.40;7.10;;;14.50;99.90;;;;;;5035462;28;20140;-49
2021/04/03 01:11:03;;;;;;;14.75;8.10;;;14.50;99.90;;;;;;5051825;28;20053;-52
2021/04/03 01:13:50;;;;;;;15.10;8.57;;;14.50;99.90;;;;;;5068786;28;20084;-53
2021/04/03 01:16:25;;;;;;;15.68;7.93;;;14.50;99.90;;;;;;5035694;28;20136;-50
2021/04/03 01:19:28;;;;;;;14.25;8.13;;;14.50;99.90;;;;;;5051971;28;20056;-51
2021/04/03 01:22:12;;;;;;;18.52;7.57;;;14.50;99.90;;;;;;5056091;28;20479;-53
2021/04/03 01:25:01;;;;;;;14.80;8.85;;;14.50;99.90;;;;;;5056109;28;20135;-54
2021/04/03 01:27:33;;;;;;;14.70;7.88;;;14.50;99.90;;;;;;5056174;28;20053;-56
2021/04/03 01:30:04;;;;;;;13.40;8.18;;;14.60;99.90;;;;;;5039237;28;20048;-52
2021/04/03 01:33:07;;;;;;;15.07;8.23;;;14.50;99.90;;;;;;5039249;28;20044;-51
2021/04/03 01:35:44;;;;;;;13.18;8.30;;;14.40;99.90;;;;;;5033209;28;20098;-49
2021/04/03 01:38:36;;;;;;;16.45;8.45;;;14.40;99.90;;;;;;5040032;28;20448;-53
2021/04/03 01:41:07;;;;;;;19.60;9.93;;;14.50;99.90;;;;;;5039345;28;20084;-50
2021/04/03 01:43:44;;;;;;;12.38;7.95;;;14.50;99.90;;;;;;5056791;28;20053;-50
2021/04/03 01:46:15;;;;;;;27.13;8.57;;;14.60;99.90;;;;;;5055570;28;20073;-54
2021/04/03 01:48:44;;;;;;;14.18;7.60;;;14.60;99.90;;;;;;5022399;28;20132;-55
2021/04/03 01:51:14;;;;;;;17.95;8.32;;;14.50;99.90;;;;;;5055555;28;20045;-51
2021/04/03 01:53:44;;;;;;;16.60;8.68;;;14.50;99.90;;;;;;5055548;28;20103;-54
2021/04/03 01:56:20;;;;;;;16.42;8.38;;;14.50;99.90;;;;;;5055721;28;20057;-51
2021/04/03 01:58:54;;;;;;;17.85;7.80;;;14.50;99.90;;;;;;5038644;28;20060;-52
2021/04/03 02:01:23;;;;;;;12.02;7.32;;;14.40;99.90;;;;;;5055181;28;20407;-55
2021/04/03 02:03:51;;;;;;;12.73;9.57;;;14.40;99.90;;;;;;5055239;28;20057;-53
2021/04/03 02:06:22;;;;;;;16.25;7.82;;;14.40;99.90;;;;;;5039445;28;20398;-50
2021/04/03 02:09:16;;;;;;;17.10;7.53;;;14.30;99.90;;;;;;5055459;28;20048;-53
2021/04/03 02:11:50;;;;;;;12.90;8.00;;;14.30;99.90;;;;;;5071614;28;20075;-53
2021/04/03 02:14:39;;;;;;;17.15;8.93;;;14.30;99.90;;;;;;5044855;28;20053;-55
2021/04/03 02:17:10;;;;;;;14.40;7.53;;;14.30;99.90;;;;;;5056225;28;20056;-54
2021/04/03 02:19:40;;;;;;;15.75;8.75;;;14.30;99.90;;;;;;5054969;28;20061;-54
2021/04/03 02:22:18;;;;;;;15.10;7.55;;;14.30;99.90;;;;;;5038753;28;20049;-53
2021/04/03 02:24:53;;;;;;;21.60;9.40;;;14.30;99.90;;;;;;5039488;28;20053;-53
2021/04/03 02:27:20;;;;;;;14.45;8.55;;;14.40;99.90;;;;;;5054816;28;20056;-54
2021/04/03 02:29:48;;;;;;;16.35;8.63;;;14.40;99.90;;;;;;5055984;28;20083;-55
2021/04/03 02:32:17;;;;;;;15.57;8.10;;;14.40;99.90;;;;;;5037326;28;20049;-53
2021/04/03 02:34:44;;;;;;;14.10;8.48;;;14.30;99.90;;;;;;5054567;28;20060;-54
2021/04/03 02:37:12;;;;;;;17.75;9.65;;;14.30;99.90;;;;;;5055688;28;20083;-53
2021/04/03 02:39:40;;;;;;;14.63;9.05;;;14.30;99.90;;;;;;5038048;28;20057;-54
2021/04/03 02:42:21;;;;;;;19.98;9.75;;;14.30;99.90;;;;;;5021694;28;20045;-52
2021/04/03 02:45:05;;;;;;;12.95;8.68;;;14.30;99.90;;;;;;5054537;28;20068;-53
2021/04/03 02:47:36;;;;;;;26.17;9.85;;;14.20;99.90;;;;;;5054208;28;20055;-54
2021/04/03 02:50:08;;;;;;;17.10;9.15;;;14.20;99.90;;;;;;5054547;28;20053;-52
2021/04/03 02:52:39;;;;;;;15.48;10.00;;;14.20;99.90;;;;;;5038316;28;20136;-49
2021/04/03 02:55:08;;;;;;;22.15;10.40;;;14.20;99.90;;;;;;5037738;28;20044;-54
2021/04/03 02:57:40;;;;;;;16.55;7.80;;;14.10;99.90;;;;;;5054482;28;20055;-51
2021/04/03 03:00:11;;;;;;;16.30;9.02;;;14.10;99.90;;;;;;5037504;28;20143;-53
2021/04/03 03:02:41;;;;;;;20.50;9.35;;;14.10;99.90;;;;;;5054120;28;20517;-54
2021/04/03 03:05:10;;;;;;;16.45;10.70;;;14.10;99.90;;;;;;5054253;28;20140;-53
2021/04/03 03:07:45;;;;;;;16.75;9.77;;;14.10;99.90;;;;;;5053960;28;20053;-55
2021/04/03 03:10:16;;;;;;;18.58;9.80;;;14.10;99.90;;;;;;5037373;28;20431;-54
2021/04/03 03:12:47;;;;;;;15.30;9.27;;;14.10;99.90;;;;;;5055048;28;20482;-52
2021/04/03 03:15:17;;;;;;;17.73;9.98;;;14.10;99.90;;;;;;5055149;28;20045;-52
2021/04/03 03:17:49;;;;;;;13.07;8.82;;;14.20;99.90;;;;;;5037363;28;20487;-53
2021/04/03 03:20:16;;;;;;;18.80;10.02;;;14.10;99.90;;;;;;5054985;28;20044;-54
2021/04/03 03:22:46;;;;;;;22.88;10.07;;;14.10;99.90;;;;;;5053593;28;20041;-56
2021/04/03 03:25:13;;;;;;;19.73;9.30;;;14.10;99.90;;;;;;5053484;28;20052;-54
2021/04/03 03:27:46;;;;;;;15.23;10.07;;;14.10;99.90;;;;;;5053458;28;20052;-49
2021/04/03 03:30:20;;;;;;;17.02;9.93;;;14.10;99.90;;;;;;5053717;28;20045;-54
2021/04/03 03:32:51;;;;;;;19.52;9.30;;;14.10;99.90;;;;;;5054799;28;20191;-52
2021/04/03 03:35:19;;;;;;;20.08;9.70;;;14.10;99.90;;;;;;5036981;28;20045;-54
2021/04/03 03:37:52;;;;;;;18.77;10.10;;;14.10;99.90;;;;;;5037177;28;20052;-54
2021/04/03 03:40:24;;;;;;;14.88;9.82;;;14.10;99.90;;;;;;5036639;28;20057;-53
2021/04/03 03:42:55;;;;;;;18.17;9.40;;;14.10;99.90;;;;;;5035945;28;20045;-52
2021/04/03 03:45:26;;;;;;;20.15;9.63;;;14.10;99.90;;;;;;5053167;28;20091;-54
2021/04/03 03:47:57;;;;;;;17.23;10.05;;;14.10;99.90;;;;;;5053260;28;20072;-54
2021/04/03 03:50:31;;;;;;;13.27;9.68;;;14.00;99.90;;;;;;5036765;28;20045;-55
2021/04/03 03:53:00;;;;;;;15.23;9.77;;;14.00;99.90;;;;;;5054455;28;20045;-54
2021/04/03 03:55:29;;;;;;;16.40;8.57;;;14.10;99.90;;;;;;5053136;28;20249;-53
2021/04/03 03:57:59;;;;;;;19.42;9.82;;;14.10;99.90;;;;;;5036428;28;20059;-54
2021/04/03 04:00:27;;;;;;;15.18;8.98;;;14.00;99.90;;;;;;5020204;28;20044;-54
2021/04/03 04:03:05;;;;;;;24.98;10.32;;;14.00;99.90;;;;;;5052943;28;20395;-54
2021/04/03 04:05:39;;;;;;;15.23;8.85;;;14.10;99.90;;;;;;5021061;28;20136;-55
2021/04/03 04:08:09;;;;;;;19.38;9.00;;;14.10;99.90;;;;;;5052771;28;20158;-50
2021/04/03 04:10:36;;;;;;;16.20;8.63;;;14.00;99.90;;;;;;5036415;28;20053;-52
2021/04/03 04:13:05;;;;;;;17.20;9.27;;;14.00;99.90;;;;;;5036561;28;20055;-54
2021/04/03 04:15:35;;;;;;;14.68;9.45;;;14.00;99.90;;;;;;5036388;28;20053;-52
2021/04/03 04:18:03;;;;;;;17.63;8.63;;;14.00;99.90;;;;;;5052819;28;20108;-54
2021/04/03 04:20:32;;;;;;;21.27;11.32;;;14.00;99.90;;;;;;5036260;28;20400;-54
2021/04/03 04:23:05;;;;;;;16.55;10.15;;;14.00;99.90;;;;;;5052646;28;20479;-55
2021/04/03 04:25:41;;;;;;;15.20;9.80;;;14.00;99.90;;;;;;5020891;28;20053;-53
2021/04/03 04:28:13;;;;;;;18.60;9.55;;;14.00;99.90;;;;;;5052568;28;20155;-53
2021/04/03 04:30:40;;;;;;;16.60;9.02;;;14.00;99.90;;;;;;5052545;28;20052;-51
2021/04/03 04:33:09;;;;;;;10.10;7.55;;;14.10;99.90;;;;;;5053788;28;20178;-54
2021/04/03 04:35:37;;;;;;;12.27;8.80;;;14.10;99.90;;;;;;5052503;28;20506;-55
2021/04/03 04:38:10;;;;;;;17.63;9.00;;;14.10;99.90;;;;;;5035930;28;20053;-53
2021/04/03 04:40:43;;;;;;;27.13;10.23;;;14.00;99.90;;;;;;5052263;28;20139;-54
2021/04/03 04:43:14;;;;;;;15.57;9.60;;;14.00;99.90;;;;;;5036368;28;20487;-50
2021/04/03 04:45:44;;;;;;;17.85;10.10;;;13.90;99.90;;;;;;5052441;28;20107;-54
2021/04/03 04:48:12;;;;;;;17.58;10.35;;;13.90;99.90;;;;;;5035678;28;20073;-53
2021/04/03 04:50:42;;;;;;;20.80;10.13;;;13.90;99.90;;;;;;5035672;28;20128;-51
2021/04/03 04:53:12;;;;;;;14.55;9.40;;;14.00;99.90;;;;;;5052122;28;20490;-55
2021/04/03 04:55:44;;;;;;;13.40;9.45;;;14.00;99.90;;;;;;5052045;28;20053;-54
2021/04/03 04:58:13;;;;;;;19.80;9.77;;;14.10;99.90;;;;;;5019526;28;20479;-52
2021/04/03 05:00:40;;;;;;;17.98;9.57;;;14.10;99.90;;;;;;5035852;28;20056;-53
2021/04/03 05:03:14;;;;;;;16.77;8.70;;;14.20;99.90;;;;;;5053354;28;20041;-54
2021/04/03 05:05:41;;;;;;;14.40;8.70;;;14.20;99.90;;;;;;5053158;28;20045;-51
2021/04/03 05:08:08;;;;;;;17.60;10.95;;;14.20;99.90;;;;;;5052115;28;20495;-55
2021/04/03 05:10:36;;;;;;;17.90;10.75;;;14.30;99.90;;;;;;5051965;28;20055;-55
2021/04/03 05:13:04;;;;;;;18.70;9.32;;;14.30;99.90;;;;;;5052166;28;20053;-55
2021/04/03 05:15:31;;;;;;;15.13;10.32;;;14.50;99.90;;;;;;5035641;28;20102;-52
2021/04/03 05:17:59;;;;;;;14.27;9.10;;;14.50;99.90;;;;;;5052073;28;20064;-55
2021/04/03 05:20:26;;;;;;;15.32;8.52;;;14.50;99.90;;;;;;5053102;28;20518;-52
2021/04/03 05:22:54;;;;;;;15.05;9.02;;;14.60;99.90;;;;;;5052154;28;20045;-54
2021/04/03 05:25:21;;;;;;;19.92;9.02;;;14.70;99.90;;;;;;5051872;28;20076;-53
2021/04/03 05:27:49;;;;;;;12.38;7.70;;;14.70;99.90;;;;;;5051798;28;20506;-55
2021/04/03 05:30:20;;;;;;;15.40;9.20;;;14.80;99.90;;;;;;5035304;28;20053;-54
2021/04/03 05:32:50;;;;;;;14.70;7.78;;;14.80;99.90;;;;;;5051936;28;20053;-55
2021/04/03 05:35:17;;;;;;;12.15;8.30;;;14.90;99.90;;;;;;5051854;28;20135;-55
2021/04/03 05:37:45;;;;;;;21.67;9.30;;;15.00;99.90;;;;;;5052944;28;20060;-53
2021/04/03 05:40:13;;;;;;;9.82;7.28;;;15.00;99.90;;;;;;5051686;28;20562;-55
2021/04/03 05:42:46;;;;;;;14.80;8.40;;;15.20;99.90;;;;;;5052823;28;20521;-54
2021/04/03 05:45:19;;;;;;;15.00;8.43;;;15.20;99.90;;;;;;5052982;28;20076;-55
2021/04/03 05:47:47;;;;;;;12.88;8.23;;;15.30;99.90;;;;;;5035312;28;20056;-55
2021/04/03 05:50:14;;;;;;;14.70;8.20;;;15.30;99.90;;;;;;5051641;28;20049;-53
2021/04/03 05:52:42;;;;;;;11.07;8.05;;;15.40;99.90;;;;;;5035160;28;20041;-56
2021/04/03 05:55:10;;;;;;;13.77;7.38;;;15.50;99.90;;;;;;5018913;28;20407;-55
2021/04/03 05:57:37;;;;;;;14.80;7.20;;;15.60;99.90;;;;;;5035208;28;20049;-55
2021/04/03 06:00:07;;;;;;;12.50;7.75;;;15.60;99.90;;;;;;5051732;28;20127;-56
2021/04/03 06:02:41;;;;;;;;;;;15.70;99.90;;;;;;5053190;28;20052;-57
2021/04/03 06:05:09;;;;;;;18.63;9.50;;;15.80;99.90;;;;;;5051560;28;20386;-56
2021/04/03 06:07:39;;;;;;;16.77;8.77;;;15.90;99.90;;;;;;5053776;28;20087;-55
2021/04/03 06:10:09;;;;;;;13.57;8.23;;;15.90;99.90;;;;;;5038642;28;20045;-55
2021/04/03 06:12:46;;;;;;;12.80;7.88;;;15.90;99.90;;;;;;5056241;28;20053;-56
2021/04/03 06:15:35;;;;;;;11.50;7.00;;;16.00;99.90;;;;;;5054936;28;20403;-54
2021/04/03 06:18:10;;;;;;;9.75;6.57;;;16.10;99.90;;;;;;5038503;28;20060;-56
2021/04/03 06:20:40;;;;;;;17.90;7.68;;;16.10;99.90;;;;;;5056230;28;20055;-56
2021/04/03 06:23:09;;;;;;;11.90;6.25;;;16.20;99.90;;;;;;5054800;28;20076;-56
2021/04/03 06:25:58;;;;;;;12.82;7.10;;;16.20;99.90;;;;;;5054764;28;20467;-55
2021/04/03 06:28:32;;;;;;;17.25;6.40;;;16.30;99.90;;;;;;5054702;28;20045;-55
2021/04/03 06:31:15;;;;;;;17.65;7.07;;;16.30;99.90;;;;;;5055976;28;20060;-54
2021/04/03 06:33:44;;;;;;;16.13;7.78;;;16.30;99.90;;;;;;5037980;28;20060;-55
2021/04/03 06:36:16;;;;;;;11.75;6.90;;;16.30;99.90;;;;;;5038131;28;20475;-55
2021/04/03 06:38:48;;;;;;;11.43;6.05;;;16.40;99.90;;;;;;5055723;28;20470;-55
2021/04/03 06:41:15;;;;;;;15.48;8.05;;;16.40;99.90;;;;;;5050887;28;20052;-56
2021/04/03 06:43:45;;;;;;;11.00;6.53;;;16.50;99.90;;;;;;5054475;28;20045;-56
2021/04/03 06:46:25;;;;;;;12.35;6.72;;;16.50;99.90;;;;;;5037947;28;20076;-54
2021/04/03 06:48:57;;;;;;;10.50;6.47;;;16.50;99.90;;;;;;5055539;28;20056;-55
2021/04/03 06:51:25;;;;;;;11.57;6.70;;;16.60;99.90;;;;;;5055894;28;20182;-56
2021/04/03 06:53:56;;;;;;;14.00;7.03;;;16.50;99.90;;;;;;5054200;28;20075;-52
2021/04/03 06:56:25;;;;;;;20.80;7.57;;;16.60;99.90;;;;;;5054311;28;20068;-56
2021/04/03 06:59:05;;;;;;;18.10;9.25;;;16.70;99.90;;;;;;5054122;28;20059;-56
2021/04/03 07:01:56;;;;;;;15.85;6.65;;;16.60;99.90;;;;;;5054222;28;20088;-56
2021/04/03 07:04:39;;;;;;;10.38;6.78;;;16.70;99.90;;;;;;5028187;28;20045;-55
2021/04/03 07:07:08;;;;;;;10.35;6.90;;;16.80;99.90;;;;;;5055175;28;20060;-56
2021/04/03 07:09:36;;;;;;;22.02;8.93;;;16.90;99.90;;;;;;5054122;28;20143;-56
2021/04/03 07:12:04;;;;;;;12.77;6.93;;;17.00;99.90;;;;;;5053542;28;20492;-56
2021/04/03 07:14:33;;;;;;;10.27;6.00;;;17.00;99.90;;;;;;5053366;28;20060;-56
2021/04/03 07:17:03;;;;;;;13.63;8.98;;;17.10;99.90;;;;;;5037126;28;20095;-56
2021/04/03 07:19:31;;;;;;;16.40;9.07;;;17.30;99.90;;;;;;5036847;28;20136;-56
2021/04/03 07:21:58;;;;;;;16.50;8.27;;;17.40;99.90;;;;;;5053425;28;20487;-54
2021/04/03 07:24:26;;;;;;;9.70;6.68;;;17.40;99.90;;;;;;5053172;28;20049;-55
2021/04/03 07:26:54;;;;;;;12.52;7.30;;;17.50;99.90;;;;;;5053295;28;20048;-56
2021/04/03 07:29:40;;;;;;;13.90;7.90;;;17.80;99.90;;;;;;5053289;28;20503;-56
2021/04/03 07:32:38;;;;;;;11.23;8.27;;;17.80;99.90;;;;;;5054348;28;20057;-56
2021/04/03 07:35:16;;;;;;;10.85;6.97;;;17.90;99.90;;;;;;5054421;28;20081;-55
2021/04/03 07:37:45;;;;;;;10.27;6.88;;;17.80;99.90;;;;;;5053259;28;20049;-55
2021/04/03 07:40:14;;;;;;;8.88;5.20;;;17.60;99.90;;;;;;5018954;28;21634;-58
2021/04/03 07:42:42;;;;;;;11.95;6.68;;;17.40;99.90;;;;;;5054058;28;20049;-56
2021/04/03 07:45:31;;;;;;;12.45;7.68;;;17.40;99.90;;;;;;5036415;28;20515;-56
2021/04/03 07:48:00;;;;;;;11.40;5.95;;;17.60;99.90;;;;;;5052990;28;20056;-56
2021/04/03 07:50:45;;;;;;;10.45;6.00;;;17.80;99.90;;;;;;5052782;28;20048;-57
2021/04/03 07:53:33;;;;;;;12.60;6.43;;;18.00;99.90;;;;;;5052878;28;20094;-55
2021/04/03 07:56:01;;;;;;;11.63;6.53;;;17.90;99.90;;;;;;5035848;28;20056;-57
2021/04/03 07:58:33;;;;;;;8.48;5.90;;;17.90;99.90;;;;;;5034915;28;20055;-56
2021/04/03 08:01:15;;;;;;;11.20;5.70;;;18.00;99.90;;;;;;5051994;28;20103;-56
2021/04/03 08:03:53;;;;;;;13.32;5.90;;;17.90;99.90;;;;;;5017775;28;20094;-56
2021/04/03 08:06:30;;;;;;;12.50;6.93;;;18.10;99.90;;;;;;5053160;28;20077;-59
2021/04/03 08:08:58;;;;;;;;;;;18.20;99.90;;;;;;5052210;28;20049;-61
2021/04/03 08:11:27;;;;;;;13.13;6.20;;;18.40;99.90;;;;;;5033360;28;19925;-59
2021/04/03 08:13:56;;;;;;;15.85;6.93;;;18.00;99.90;;;;;;5033629;28;20056;-55
2021/04/03 08:16:27;;;;;;;13.57;7.03;;;17.80;99.90;;;;;;5053535;28;20136;-55
2021/04/03 08:18:57;;;;;;;17.73;6.85;;;17.70;99.90;;;;;;5052318;28;20579;-56
2021/04/03 08:21:27;;;;;;;11.18;5.38;;;17.90;99.90;;;;;;5051129;28;20047;-56
2021/04/03 08:23:57;;;;;;;11.43;5.93;;;18.20;99.90;;;;;;5050213;28;20049;-59
2021/04/03 08:26:33;;;;;;;12.23;4.88;;;18.40;99.90;;;;;;5052847;28;20049;-56
2021/04/03 08:29:00;;;;;;;;;;;18.60;99.90;;;;;;5052066;28;20045;-56
2021/04/03 08:31:30;;;;;;;11.65;5.68;;;18.50;99.90;;;;;;5051685;28;20016;-56
2021/04/03 08:34:01;;;;;;;12.32;5.95;;;18.70;99.90;;;;;;5050499;28;20132;-57
2021/04/03 08:36:32;;;;;;;12.40;8.60;;;18.70;99.90;;;;;;5034189;28;20069;-57
2021/04/03 08:39:05;;;;;;;13.45;6.07;;;18.90;99.90;;;;;;5052322;28;20155;-57
2021/04/03 08:41:34;;;;;;;11.40;6.43;;;19.00;99.90;;;;;;5091225;28;20060;-56
2021/04/03 08:44:39;;;;;;;8.88;5.97;;;18.90;99.90;;;;;;5058766;28;20066;-56
2021/04/03 08:47:07;;;;;;;11.55;6.70;;;18.90;99.90;;;;;;5054052;28;20063;-56
2021/04/03 08:49:37;;;;;;;19.73;7.85;;;19.00;99.90;;;;;;5075581;28;20091;-56
2021/04/03 08:52:07;;;;;;;10.45;6.07;;;18.90;99.90;;;;;;5093392;28;20527;-56
2021/04/03 08:54:44;;;;;;;10.05;6.35;;;18.90;99.90;;;;;;5093425;28;20101;-51
2021/04/03 08:57:23;;;;;;;12.45;6.32;;;18.80;99.90;;;;;;5075432;28;20076;-56
2021/04/03 08:59:51;;;;;;;8.15;5.90;;;18.90;99.90;;;;;;5075572;28;20044;-55
2021/04/03 09:02:18;;;;;;;15.23;6.00;;;18.90;99.90;;;;;;5042076;28;20405;-53
2021/04/03 09:04:46;;;;;;;9.23;6.57;;;19.10;99.90;;;;;;5058523;28;20107;-54
2021/04/03 09:07:34;;;;;;;11.55;4.78;;;19.40;99.90;;;;;;5075479;28;20049;-56
2021/04/03 09:10:07;;;;;;;11.38;5.75;;;19.30;99.90;;;;;;5042119;28;20406;-55
2021/04/03 09:12:34;;;;;;;11.18;5.82;;;19.40;99.90;;;;;;5058814;28;20496;-56
2021/04/03 09:15:06;;;;;;;17.33;7.47;;;19.20;99.90;;;;;;5075198;28;20051;-52
2021/04/03 09:17:35;;;;;;;12.27;5.25;;;19.20;99.90;;;;;;5058661;28;20048;-58
2021/04/03 09:20:11;;;;;;;8.80;5.82;;;19.10;99.90;;;;;;5075137;28;20048;-58
2021/04/03 09:22:41;;;;;;;11.70;6.57;;;19.30;99.90;;;;;;5075261;28;20114;-56
2021/04/03 09:25:11;;;;;;;11.75;6.05;;;19.30;99.90;;;;;;5093199;28;20099;-53
2021/04/03 09:27:40;;;;;;;12.23;5.85;;;19.30;99.90;;;;;;5074092;28;20074;-59
2021/04/03 09:30:13;;;;;;;11.95;6.60;;;19.30;99.90;;;;;;5074985;28;20052;-56
2021/04/03 09:32:44;;;;;;;15.43;6.07;;;19.30;99.90;;;;;;5092452;28;20394;-47
2021/04/03 09:35:24;;;;;;;11.10;6.60;;;19.40;99.90;;;;;;5092015;28;20048;-56
2021/04/03 09:37:59;;;;;;;9.10;5.55;;;19.50;99.90;;;;;;5075282;28;20397;-57
2021/04/03 09:40:45;;;;;;;10.37;5.67;;;19.50;99.90;;;;;;5045164;28;20053;-50
2021/04/03 09:43:14;;;;;;;8.27;6.55;;;19.60;99.90;;;;;;5054194;28;20153;-51
2021/04/03 09:45:43;;;;;;;15.32;6.18;;;19.60;99.90;;;;;;5037646;28;20056;-54
2021/04/03 09:48:11;;;;;;;21.38;7.20;;;19.60;99.90;;;;;;5052450;28;20365;-55
2021/04/03 09:50:40;;;;;;;10.00;6.85;;;19.50;99.90;;;;;;5054177;28;20136;-56
2021/04/03 09:53:09;;;;;;;12.80;6.50;;;19.60;99.90;;;;;;5054181;28;20041;-53
2021/04/03 09:55:37;;;;;;;9.32;5.78;;;19.80;99.90;;;;;;5054095;28;20048;-54
2021/04/03 09:58:06;;;;;;;8.75;5.50;;;19.70;99.90;;;;;;5037522;28;20052;-53
2021/04/03 10:00:33;;;;;;;12.90;6.93;;;19.60;99.90;;;;;;5037510;28;20456;-49
2021/04/03 10:03:01;;;;;;;16.23;6.90;;;19.60;99.90;;;;;;5037473;28;20487;-54
2021/04/03 10:05:29;;;;;;;16.45;6.80;;;19.80;99.90;;;;;;5053902;28;20513;-58
2021/04/03 10:07:56;;;;;;;11.20;6.30;;;19.70;99.90;;;;;;5055231;28;20041;-57
2021/04/03 10:10:24;;;;;;;10.75;6.10;;;19.40;99.90;;;;;;5037418;28;20041;-57
2021/04/03 10:12:52;;;;;;;12.07;5.65;;;19.30;99.90;;;;;;5037455;28;20468;-57
2021/04/03 10:15:21;;;;;;;12.98;5.82;;;19.40;99.90;;;;;;5037391;28;20411;-57
2021/04/03 10:17:49;;;;;;;9.13;6.93;;;19.60;99.90;;;;;;5037400;28;20080;-57
2021/04/03 10:20:17;;;;;;;11.57;6.38;;;19.70;99.90;;;;;;5053613;28;20055;-57
2021/04/03 10:22:45;;;;;;;23.67;7.00;;;19.70;99.90;;;;;;5053601;28;20049;-57
2021/04/03 10:25:16;;;;;;;10.18;5.47;;;19.90;99.90;;;;;;5053517;28;20041;-58
2021/04/03 10:27:43;;;;;;;11.10;7.28;;;19.70;99.90;;;;;;5037242;28;20040;-58
2021/04/03 10:30:11;;;;;;;10.55;5.93;;;19.60;99.90;;;;;;5053628;28;20491;-57
2021/04/03 10:32:39;;;;;;;10.20;6.05;;;19.50;99.90;;;;;;5053480;28;20055;-57
2021/04/03 10:35:07;;;;;;;11.95;6.72;;;19.40;99.90;;;;;;5053599;28;20507;-58
2021/04/03 10:37:34;;;;;;;12.85;6.40;;;19.50;99.90;;;;;;5053396;28;20068;-58
2021/04/03 10:40:03;;;;;;;11.40;6.57;;;19.50;99.90;;;;;;5061065;28;20087;-58
2021/04/03 10:42:31;;;;;;;20.27;7.72;;;19.50;99.90;;;;;;5094560;28;20493;-58
2021/04/03 10:44:59;;;;;;;11.88;7.60;;;19.50;99.90;;;;;;5059984;28;20055;-58
2021/04/03 10:47:27;;;;;;;11.90;6.38;;;19.60;99.90;;;;;;5094404;28;20056;-58
2021/04/03 10:49:55;;;;;;;12.65;7.63;;;19.40;99.90;;;;;;5076685;28;20527;-58
2021/04/03 10:52:22;;;;;;;16.90;6.15;;;19.60;99.90;;;;;;5059372;28;20049;-58
2021/04/03 10:54:50;;;;;;;17.77;6.78;;;19.60;99.90;;;;;;5076635;28;20056;-58
2021/04/03 10:57:21;;;;;;;10.13;8.00;;;19.50;99.90;;;;;;5076904;28;20052;-58
2021/04/03 10:59:50;;;;;;;15.63;9.27;;;19.60;99.90;;;;;;5059817;28;20397;-58
2021/04/03 11:02:17;;;;;;;30.75;11.75;;;19.60;99.90;;;;;;5076471;28;20121;-57
2021/04/03 11:04:45;;;;;;;12.88;6.70;;;19.70;99.90;;;;;;5076113;28;20082;-57
2021/04/03 11:07:12;;;;;;;11.07;7.32;;;19.70;99.90;;;;;;5059470;28;20072;-58
2021/04/03 11:09:40;;;;;;;8.23;5.40;;;19.70;99.90;;;;;;5076162;28;20127;-57
2021/04/03 11:12:08;;;;;;;21.10;10.57;;;19.40;99.90;;;;;;5076100;28;20343;-57
2021/04/03 11:14:35;;;;;;;16.30;8.15;;;19.40;99.90;;;;;;5076058;28;20044;-58
2021/04/03 11:17:03;;;;;;;13.80;7.13;;;19.40;99.90;;;;;;5076553;28;20146;-58
2021/04/03 11:19:31;;;;;;;15.90;8.02;;;19.50;99.90;;;;;;5060499;28;20048;-58
2021/04/03 11:21:58;;;;;;;15.52;9.50;;;19.30;99.90;;;;;;5077238;28;20113;-57
2021/04/03 11:24:26;;;;;;;16.35;9.98;;;19.10;99.90;;;;;;5043897;28;20048;-57
2021/04/03 11:26:53;;;;;;;30.25;12.85;;;18.80;99.90;;;;;;5060468;28;20513;-57
2021/04/03 11:29:21;;;;;;;27.58;13.25;;;18.70;99.90;;;;;;5076738;28;20127;-57
2021/04/03 11:31:50;;;;;;;20.65;11.55;;;18.50;99.90;;;;;;5077216;28;20048;-57
2021/04/03 11:34:17;;;;;;;19.38;7.68;;;18.50;99.90;;;;;;5077006;28;20044;-57
2021/04/03 11:36:45;;;;;;;16.25;8.57;;;18.50;99.90;;;;;;5076904;28;20052;-54
2021/04/03 11:39:12;;;;;;;19.02;9.52;;;18.50;99.90;;;;;;5076840;28;20055;-45
2021/04/03 11:41:40;;;;;;;16.45;10.40;;;18.30;99.90;;;;;;5057330;28;20114;-45
2021/04/03 11:44:07;;;;;;;15.90;9.85;;;18.30;99.90;;;;;;5036547;28;20060;-44
2021/04/03 11:46:34;;;;;;;13.32;7.38;;;18.20;99.90;;;;;;5054511;28;20045;-45
2021/04/03 11:49:02;;;;;;;15.55;9.60;;;18.30;99.90;;;;;;5054330;28;20513;-45
2021/04/03 11:51:32;;;;;;;11.65;7.72;;;18.20;99.90;;;;;;5054287;28;20511;-45
2021/04/03 11:53:59;;;;;;;18.20;9.70;;;18.10;99.90;;;;;;5053090;28;20056;-45
2021/04/03 11:56:27;;;;;;;15.80;8.48;;;17.90;99.90;;;;;;5053049;28;20041;-44
2021/04/03 11:58:55;;;;;;;23.60;8.75;;;17.90;99.90;;;;;;5053118;28;20387;-45
2021/04/03 12:01:22;;;;;;;17.00;7.97;;;17.80;99.90;;;;;;5054216;28;20052;-45
2021/04/03 12:03:49;;;;;;;14.70;7.75;;;17.70;99.90;;;;;;5051159;28;20118;-45
2021/04/03 12:06:17;;;;;;;13.88;7.38;;;17.70;99.90;;;;;;5035822;28;20056;-45
2021/04/03 12:08:44;;;;;;;32.35;9.55;;;17.60;99.90;;;;;;5053869;28;20118;-63
2021/04/03 12:11:12;;;;;;;18.65;8.32;;;17.60;99.90;;;;;;5053075;28;20171;-64
2021/04/03 12:13:39;;;;;;;13.57;8.02;;;17.50;99.90;;;;;;5036133;28;20072;-64
2021/04/03 12:16:06;;;;;;;16.17;9.82;;;17.50;99.90;;;;;;5052347;28;20094;-64
2021/04/03 12:18:34;;;;;;;18.52;10.35;;;17.50;99.90;;;;;;5035964;28;20453;-63
2021/04/03 12:21:03;;;;;;;14.85;8.98;;;17.40;99.90;;;;;;5052668;28;20049;-64
2021/04/03 12:23:31;;;;;;;18.98;8.52;;;17.30;99.90;;;;;;5052635;28;20401;-63
2021/04/03 12:25:58;;;;;;;18.92;9.65;;;17.20;99.90;;;;;;5052030;28;20048;-63
2021/04/03 12:28:28;;;;;;;18.85;10.45;;;17.20;99.90;;;;;;5052876;28;20144;-64
2021/04/03 12:30:56;;;;;;;24.27;10.43;;;17.00;99.90;;;;;;5052560;28;20063;-64
2021/04/03 12:33:31;;;;;;;13.88;7.55;;;16.90;99.90;;;;;;5052762;28;20056;-64
2021/04/03 12:35:58;;;;;;;14.05;7.45;;;16.90;99.90;;;;;;5052475;28;20047;-64
2021/04/03 12:38:26;;;;;;;12.25;7.32;;;16.70;99.90;;;;;;5051850;28;20045;-64
2021/04/03 12:40:53;;;;;;;13.13;7.47;;;16.70;99.90;;;;;;5051758;28;20060;-63
2021/04/03 12:43:20;;;;;;;17.48;8.10;;;16.60;99.90;;;;;;5052233;28;20052;-63
2021/04/03 12:45:48;;;;;;;11.95;8.05;;;16.60;99.90;;;;;;5051261;28;20049;-64
2021/04/03 12:48:16;;;;;;;13.95;7.07;;;16.60;99.90;;;;;;5050544;28;20468;-64
2021/04/03 12:50:45;;;;;;;12.77;7.82;;;16.60;99.90;;;;;;5042959;28;20463;-64
2021/04/03 12:53:13;;;;;;;14.15;8.43;;;16.50;99.90;;;;;;5052031;28;20483;-64
2021/04/03 12:55:41;;;;;;;16.42;7.00;;;16.60;99.90;;;;;;5050949;28;20045;-65
2021/04/03 12:58:08;;;;;;;14.95;9.18;;;16.60;99.90;;;;;;5050412;28;20095;-63